createdAt,value
2022-10-13T00:01:11.649Z,66.13
2022-10-13T00:03:40.707Z,66.06
2022-10-13T00:06:11.747Z,66.15
2022-10-13T00:08:41.940Z,66.96
2022-10-13T00:11:13.136Z,67.00
2022-10-13T00:13:42.210Z,66.82
2022-10-13T00:16:11.546Z,66.06
2022-10-13T00:18:40.080Z,65.88
2022-10-13T00:21:09.983Z,66.45
2022-10-13T00:23:38.508Z,66.65
2022-10-13T00:26:10.514Z,67.24
2022-10-13T00:28:39.367Z,66.65
2022-10-13T00:31:17.065Z,66.50
2022-10-13T00:33:45.505Z,66.07
2022-10-13T00:36:14.449Z,66.32
2022-10-13T00:38:43.806Z,66.73
2022-10-13T00:41:13.636Z,67.63
2022-10-13T00:43:52.978Z,66.40
2022-10-13T00:46:21.615Z,67.14
2022-10-13T00:48:58.187Z,66.43
2022-10-13T00:51:30.716Z,66.93
2022-10-13T00:54:01.053Z,66.76
2022-10-13T00:56:30.941Z,66.94
2022-10-13T00:59:01.408Z,66.60
2022-10-13T01:01:30.180Z,66.78
2022-10-13T01:03:58.590Z,65.80
2022-10-13T01:06:27.274Z,67.08
2022-10-13T01:08:55.859Z,66.75
2022-10-13T01:11:39.030Z,67.15
2022-10-13T01:14:19.289Z,67.37
2022-10-13T01:16:54.939Z,66.97
2022-10-13T01:19:51.794Z,66.74
2022-10-13T01:22:39.454Z,67.33
2022-10-13T01:25:19.087Z,67.21
2022-10-13T01:28:19.390Z,66.19
2022-10-13T01:30:53.721Z,65.28
2022-10-13T01:33:31.236Z,65.45
2022-10-13T01:36:13.396Z,65.48
2022-10-13T01:38:49.118Z,65.99
2022-10-13T01:41:26.818Z,65.62
2022-10-13T01:44:01.882Z,65.90
2022-10-13T01:46:34.519Z,65.81
2022-10-13T01:49:06.086Z,66.34
2022-10-13T01:51:36.269Z,65.40
2022-10-13T01:54:05.215Z,65.90
2022-10-13T01:56:33.731Z,65.92
2022-10-13T01:59:07.004Z,65.77
2022-10-13T02:01:54.280Z,65.55
2022-10-13T02:04:32.363Z,65.53
2022-10-13T02:07:07.308Z,67.33
2022-10-13T02:09:42.828Z,67.97
2022-10-13T02:12:17.698Z,67.47
2022-10-13T02:14:49.368Z,67.80
2022-10-13T02:17:20.678Z,66.95
2022-10-13T02:19:49.178Z,66.60
2022-10-13T02:22:18.979Z,67.26
2022-10-13T02:24:47.521Z,66.88
2022-10-13T02:27:15.969Z,67.01
2022-10-13T02:29:52.314Z,66.46
2022-10-13T02:32:23.038Z,66.63
2022-10-13T02:34:53.628Z,66.74
2022-10-13T02:37:21.878Z,65.39
2022-10-13T02:39:50.217Z,65.30
2022-10-13T02:42:20.835Z,64.96
2022-10-13T02:44:49.323Z,65.36
2022-10-13T02:47:17.989Z,66.75
2022-10-13T02:49:47.522Z,66.14
2022-10-13T02:52:15.713Z,64.84
2022-10-13T02:54:43.929Z,64.42
2022-10-13T02:57:12.096Z,64.78
2022-10-13T02:59:45.039Z,65.22
2022-10-13T03:02:13.104Z,64.80
2022-10-13T03:04:41.359Z,64.59
2022-10-13T03:07:11.280Z,64.46
2022-10-13T03:09:39.551Z,64.93
2022-10-13T03:12:08.169Z,65.31
2022-10-13T03:14:37.024Z,64.75
2022-10-13T03:17:07.019Z,64.98
2022-10-13T03:19:38.230Z,64.80
2022-10-13T03:22:06.417Z,66.33
2022-10-13T03:24:35.938Z,66.19
2022-10-13T03:27:04.128Z,65.32
2022-10-13T03:29:32.385Z,65.12
2022-10-13T03:32:00.612Z,65.42
2022-10-13T03:34:29.430Z,65.01
2022-10-13T03:36:58.221Z,64.66
2022-10-13T03:39:26.846Z,65.30
2022-10-13T03:41:56.769Z,64.62
2022-10-13T03:44:25.031Z,65.17
2022-10-13T03:46:53.511Z,65.09
2022-10-13T03:49:21.997Z,65.91
2022-10-13T03:51:50.213Z,65.30
2022-10-13T03:54:18.862Z,65.76
2022-10-13T03:56:49.684Z,65.92
2022-10-13T03:59:19.505Z,65.95
2022-10-13T04:01:47.698Z,65.47
2022-10-13T04:04:15.989Z,65.46
2022-10-13T04:06:44.618Z,65.26
2022-10-13T04:09:13.242Z,66.00
2022-10-13T04:11:42.248Z,65.87
2022-10-13T04:14:10.448Z,66.20
2022-10-13T04:16:40.781Z,66.09
2022-10-13T04:19:09.158Z,65.54
2022-10-13T04:21:37.293Z,66.35
2022-10-13T04:24:06.847Z,66.10
2022-10-13T04:26:37.026Z,65.80
2022-10-13T04:29:10.378Z,66.18
2022-10-13T04:31:43.028Z,66.72
2022-10-13T04:34:11.688Z,65.83
2022-10-13T04:36:40.004Z,66.76
2022-10-13T04:39:08.257Z,66.63
2022-10-13T04:41:36.674Z,66.18
2022-10-13T04:44:05.147Z,66.96
2022-10-13T04:46:33.353Z,66.51
2022-10-13T04:49:02.899Z,66.53
2022-10-13T04:51:33.766Z,65.99
2022-10-13T04:54:03.266Z,66.33
2022-10-13T04:56:31.608Z,66.91
2022-10-13T04:59:05.919Z,67.97
2022-10-13T05:01:36.121Z,66.85
2022-10-13T05:04:10.544Z,67.80
2022-10-13T05:07:05.323Z,67.51
2022-10-13T05:09:30.286Z,66.96
2022-10-13T05:11:58.873Z,67.33
2022-10-13T05:14:27.561Z,67.16
2022-10-13T05:16:56.081Z,65.92
2022-10-13T05:19:25.849Z,66.55
2022-10-13T05:21:54.592Z,66.25
2022-10-13T05:24:31.209Z,66.19
2022-10-13T05:26:59.919Z,67.34
2022-10-13T05:29:28.553Z,68.23
2022-10-13T05:31:57.689Z,67.73
2022-10-13T05:34:28.409Z,67.48
2022-10-13T05:36:57.162Z,67.74
2022-10-13T05:39:25.984Z,67.01
2022-10-13T05:41:54.681Z,66.67
2022-10-13T05:44:24.509Z,66.75
2022-10-13T05:46:56.981Z,65.82
2022-10-13T05:49:25.129Z,65.54
2022-10-13T05:51:58.368Z,64.63
2022-10-13T05:54:31.148Z,64.97
2022-10-13T05:57:05.619Z,65.36
2022-10-13T05:59:38.942Z,64.51
2022-10-13T06:02:10.611Z,64.56
2022-10-13T06:04:43.210Z,65.19
2022-10-13T06:07:13.412Z,64.03
2022-10-13T06:09:43.288Z,63.90
2022-10-13T06:12:12.010Z,64.21
2022-10-13T06:14:40.272Z,63.88
2022-10-13T06:17:11.242Z,63.98
2022-10-13T06:19:40.001Z,63.72
2022-10-13T06:22:08.813Z,63.54
2022-10-13T06:24:38.367Z,63.61
2022-10-13T06:27:10.815Z,61.85
2022-10-13T06:29:39.336Z,61.19
2022-10-13T06:32:08.222Z,60.74
2022-10-13T06:34:36.479Z,59.41
2022-10-13T06:37:04.805Z,58.23
2022-10-13T06:39:32.875Z,57.18
2022-10-13T06:42:06.445Z,56.21
2022-10-13T06:44:39.212Z,56.07
2022-10-13T06:47:07.479Z,54.94
2022-10-13T06:49:35.630Z,55.18
2022-10-13T06:52:04.303Z,55.37
2022-10-13T06:54:32.639Z,53.96
2022-10-13T06:57:00.726Z,54.57
2022-10-13T06:59:30.111Z,55.03
2022-10-13T07:01:58.389Z,53.82
2022-10-13T07:04:28.057Z,53.33
2022-10-13T07:06:59.179Z,52.74
2022-10-13T07:09:27.475Z,50.73
2022-10-13T07:11:55.818Z,42.62
2022-10-13T07:14:23.931Z,33.40
2022-10-13T07:16:53.686Z,34.16
2022-10-13T07:19:21.979Z,32.86
2022-10-13T07:21:50.167Z,34.52
2022-10-13T07:24:18.881Z,36.36
2022-10-13T07:26:47.130Z,37.80
2022-10-13T07:29:16.294Z,39.99
2022-10-13T07:31:44.676Z,39.56
2022-10-13T07:34:15.357Z,40.89
2022-10-13T07:36:43.912Z,41.50
2022-10-13T07:39:12.172Z,45.98
2022-10-13T07:41:40.388Z,45.62
2022-10-13T07:44:08.834Z,45.07
2022-10-13T07:46:37.070Z,45.26
2022-10-13T07:49:05.390Z,46.69
2022-10-13T07:51:34.910Z,46.50
2022-10-13T07:54:03.157Z,48.84
2022-10-13T07:56:31.281Z,48.12
2022-10-13T07:58:59.539Z,46.43
2022-10-13T08:01:27.650Z,47.23
2022-10-13T08:03:56.752Z,40.19
2022-10-13T08:06:24.892Z,32.61
2022-10-13T08:08:57.806Z,36.68
2022-10-13T08:11:26.051Z,41.28
2022-10-13T08:13:55.959Z,35.81
2022-10-13T08:16:24.385Z,34.32
2022-10-13T08:18:53.096Z,38.53
2022-10-13T08:21:45.838Z,46.62
2022-10-13T08:24:16.296Z,47.57
2022-10-13T08:26:45.513Z,45.18
2022-10-13T08:29:22.027Z,37.83
2022-10-13T08:31:53.745Z,35.97
2022-10-13T08:34:23.455Z,36.00
2022-10-13T08:36:54.395Z,36.13
2022-10-13T08:39:26.238Z,34.02
2022-10-13T08:41:56.558Z,34.97
2022-10-13T08:47:24.210Z,36.02
2022-10-13T08:49:56.468Z,35.52
2022-10-13T08:52:31.698Z,35.37
2022-10-13T08:55:01.193Z,33.71
2022-10-13T08:57:32.079Z,33.50
2022-10-13T09:00:00.768Z,32.44
2022-10-13T09:02:32.602Z,32.08
2022-10-13T09:05:04.794Z,33.66
2022-10-13T09:07:38.393Z,33.57
2022-10-13T09:10:10.763Z,33.10
2022-10-13T09:12:39.200Z,30.52
2022-10-13T09:15:09.865Z,32.18
2022-10-13T09:17:40.027Z,29.99
2022-10-13T09:20:20.080Z,27.32
2022-10-13T09:23:03.984Z,31.05
2022-10-13T09:25:42.104Z,36.64
2022-10-13T09:28:17.167Z,39.21
2022-10-13T09:30:48.508Z,41.17
2022-10-13T09:33:25.881Z,40.13
2022-10-13T09:36:14.897Z,33.96
2022-10-13T09:38:47.524Z,33.58
2022-10-13T09:41:22.102Z,34.23
2022-10-13T09:44:05.874Z,32.17
2022-10-13T09:46:37.570Z,29.69
2022-10-13T09:49:09.193Z,30.00
2022-10-13T09:51:39.936Z,28.09
2022-10-13T09:54:28.930Z,25.41
2022-10-13T09:57:04.928Z,29.24
2022-10-13T09:59:36.617Z,30.18
2022-10-13T10:02:22.403Z,33.78
2022-10-13T10:04:54.843Z,31.70
2022-10-13T10:07:28.524Z,34.64
2022-10-13T10:10:04.919Z,32.85
2022-10-13T10:12:38.426Z,35.97
2022-10-13T10:15:21.440Z,35.74
2022-10-13T10:17:56.509Z,36.73
2022-10-13T10:20:50.922Z,38.03
2022-10-13T10:23:24.043Z,40.87
2022-10-13T10:25:55.003Z,40.68
2022-10-13T10:28:45.673Z,40.30
2022-10-13T10:31:27.831Z,40.80
2022-10-13T10:34:07.749Z,42.22
2022-10-13T10:36:45.893Z,40.64
2022-10-13T10:39:24.093Z,40.23
2022-10-13T10:42:00.833Z,38.14
2022-10-13T10:44:34.315Z,38.21
2022-10-13T10:47:06.264Z,37.83
2022-10-13T10:49:36.486Z,41.08
2022-10-13T10:52:09.714Z,42.88
2022-10-13T10:54:53.105Z,42.72
2022-10-13T10:57:26.740Z,41.86
2022-10-13T11:00:04.920Z,43.40
2022-10-13T11:02:48.772Z,44.55
2022-10-13T11:05:17.804Z,43.58
2022-10-13T11:08:00.344Z,43.82
2022-10-13T11:10:29.845Z,42.95
2022-10-13T11:13:22.365Z,41.22
2022-10-13T11:15:52.224Z,41.67
2022-10-13T11:18:59.295Z,40.89
2022-10-13T11:22:24.818Z,43.62
2022-10-13T11:25:26.588Z,42.80
2022-10-13T11:27:56.202Z,40.12
2022-10-13T11:30:51.162Z,41.25
2022-10-13T11:33:57.575Z,41.38
2022-10-13T11:37:03.103Z,42.91
2022-10-13T11:40:04.755Z,42.55
2022-10-13T11:43:11.770Z,44.83
2022-10-13T11:46:03.189Z,45.30
2022-10-13T11:48:56.091Z,47.09
2022-10-13T11:51:48.361Z,46.15
2022-10-13T11:54:28.279Z,49.03
2022-10-13T11:56:58.379Z,49.33
2022-10-13T11:59:31.155Z,48.49
2022-10-13T12:02:06.837Z,46.80
2022-10-13T12:04:35.000Z,45.94
2022-10-13T12:07:06.211Z,45.79
2022-10-13T12:09:37.944Z,45.38
2022-10-13T12:12:15.909Z,45.35
2022-10-13T12:14:48.465Z,45.37
2022-10-13T12:17:25.093Z,44.58
2022-10-13T12:19:55.453Z,43.07
2022-10-13T12:22:23.939Z,44.95
2022-10-13T12:25:00.720Z,45.23
2022-10-13T12:27:32.570Z,45.32
2022-10-13T12:30:03.655Z,45.52
2022-10-13T12:32:36.016Z,47.31
2022-10-13T12:35:19.976Z,47.43
2022-10-13T12:37:48.580Z,48.80
2022-10-13T12:40:18.709Z,49.85
2022-10-13T12:42:48.650Z,48.93
2022-10-13T12:45:20.207Z,49.25
2022-10-13T12:47:51.483Z,49.24
2022-10-13T12:50:38.277Z,48.92
2022-10-13T12:53:25.310Z,48.23
2022-10-13T12:55:59.102Z,47.02
2022-10-13T12:58:31.175Z,47.44
2022-10-13T13:01:27.151Z,48.06
2022-10-13T13:03:58.193Z,48.48
2022-10-13T13:06:33.791Z,47.97
2022-10-13T13:09:17.939Z,47.72
2022-10-13T13:11:46.412Z,48.17
2022-10-13T13:14:25.524Z,48.98
2022-10-13T13:17:06.171Z,48.27
2022-10-13T13:19:35.166Z,48.95
2022-10-13T13:22:06.997Z,46.94
2022-10-13T13:24:40.218Z,47.46
2022-10-13T13:27:24.616Z,46.55
2022-10-13T13:29:54.028Z,46.51
2022-10-13T13:32:26.078Z,46.05
2022-10-13T13:34:54.539Z,48.55
2022-10-13T13:37:29.953Z,48.29
2022-10-13T13:39:58.144Z,48.97
2022-10-13T13:42:28.392Z,48.94
2022-10-13T13:44:56.993Z,49.19
2022-10-13T13:47:28.603Z,48.36
2022-10-13T13:49:58.351Z,49.75
2022-10-13T13:52:26.688Z,49.93
2022-10-13T13:54:56.192Z,50.26
2022-10-13T13:57:24.340Z,51.27
2022-10-13T13:59:52.483Z,50.48
2022-10-13T14:02:22.654Z,50.59
2022-10-13T14:04:53.370Z,51.34
2022-10-13T14:07:22.405Z,51.89
2022-10-13T14:09:53.802Z,51.62
2022-10-13T14:12:24.151Z,51.60
2022-10-13T14:14:52.374Z,52.88
2022-10-13T14:17:23.471Z,51.26
2022-10-13T14:19:54.234Z,51.76
2022-10-13T14:22:23.044Z,52.97
2022-10-13T14:24:51.626Z,52.64
2022-10-13T14:27:19.766Z,52.97
2022-10-13T14:29:48.066Z,52.40
2022-10-13T14:32:17.220Z,51.67
2022-10-13T14:34:45.644Z,51.94
2022-10-13T14:37:15.264Z,52.97
2022-10-13T14:39:43.840Z,53.26
2022-10-13T14:42:11.848Z,52.33
2022-10-13T14:44:39.963Z,51.87
2022-10-13T14:47:08.495Z,53.30
2022-10-13T14:49:36.823Z,53.99
2022-10-13T14:52:05.075Z,53.70
2022-10-13T14:54:34.814Z,52.98
2022-10-13T14:57:05.633Z,53.61
2022-10-13T14:59:33.941Z,53.50
2022-10-13T15:02:02.315Z,54.02
2022-10-13T15:04:30.288Z,54.01
2022-10-13T15:06:58.357Z,54.36
2022-10-13T15:09:38.652Z,54.54
2022-10-13T15:12:17.164Z,54.14
2022-10-13T15:14:45.844Z,54.83
2022-10-13T15:17:14.264Z,54.44
2022-10-13T15:19:42.571Z,54.98
2022-10-13T15:22:11.688Z,54.96
2022-10-13T15:24:39.968Z,54.68
2022-10-13T15:27:08.242Z,54.57
2022-10-13T15:29:37.912Z,54.93
2022-10-13T15:32:10.361Z,55.22
2022-10-13T15:34:40.855Z,55.51
2022-10-13T15:37:09.048Z,56.00
2022-10-13T15:39:37.354Z,56.71
2022-10-13T15:42:06.341Z,56.53
2022-10-13T15:44:57.432Z,57.17
2022-10-13T15:47:24.065Z,58.09
2022-10-13T15:49:52.269Z,57.90
2022-10-13T15:52:20.546Z,57.75
2022-10-13T15:54:51.599Z,58.00
2022-10-13T15:57:20.202Z,58.64
2022-10-13T15:59:48.629Z,59.34
2022-10-13T16:02:16.790Z,60.13
2022-10-13T16:04:46.424Z,60.15
2022-10-13T16:07:14.465Z,60.07
2022-10-13T16:09:42.484Z,60.30
2022-10-13T16:12:10.488Z,59.46
2022-10-13T16:14:39.091Z,59.37
2022-10-13T16:17:07.327Z,59.43
2022-10-13T16:19:35.420Z,60.25
2022-10-13T16:22:04.982Z,60.15
2022-10-13T16:24:33.960Z,59.28
2022-10-13T16:27:02.170Z,59.40
2022-10-13T16:29:31.332Z,58.80
2022-10-13T16:32:00.451Z,58.98
2022-10-13T16:34:30.371Z,59.11
2022-10-13T16:36:58.517Z,59.23
2022-10-13T16:39:28.570Z,59.42
2022-10-13T16:41:56.765Z,60.12
2022-10-13T16:44:26.096Z,59.66
2022-10-13T16:46:56.639Z,59.59
2022-10-13T16:49:25.152Z,59.53
2022-10-13T16:51:53.392Z,59.62
2022-10-13T16:54:21.617Z,59.51
2022-10-13T16:56:51.472Z,59.56
2022-10-13T16:59:19.509Z,59.55
2022-10-13T17:01:49.070Z,59.98
2022-10-13T17:04:22.018Z,60.41
2022-10-13T17:06:50.658Z,60.69
2022-10-13T17:09:18.661Z,59.96
2022-10-13T17:11:46.981Z,60.53
2022-10-13T17:14:16.543Z,60.79
2022-10-13T17:16:45.211Z,60.65
2022-10-13T17:19:13.497Z,60.51
2022-10-13T17:21:41.949Z,60.84
2022-10-13T17:24:10.919Z,61.22
2022-10-13T17:26:40.035Z,61.65
2022-10-13T17:29:09.468Z,60.65
2022-10-13T17:31:39.204Z,61.21
2022-10-13T17:34:09.237Z,61.99
2022-10-13T17:36:37.759Z,61.26
2022-10-13T17:39:12.620Z,60.72
2022-10-13T17:41:41.349Z,60.38
2022-10-13T17:44:09.607Z,60.95
2022-10-13T17:46:40.128Z,60.76
2022-10-13T17:49:10.253Z,61.22
2022-10-13T17:51:38.646Z,61.29
2022-10-13T17:54:11.430Z,61.07
2022-10-13T17:56:42.961Z,60.89
2022-10-13T17:59:11.308Z,61.09
2022-10-13T18:01:42.284Z,61.57
2022-10-13T18:04:12.890Z,61.16
2022-10-13T18:06:44.403Z,61.87
2022-10-13T18:09:14.298Z,61.39
2022-10-13T18:11:49.489Z,61.34
2022-10-13T18:14:19.152Z,61.04
2022-10-13T18:16:51.421Z,61.44
2022-10-13T18:19:20.711Z,61.92
2022-10-13T18:21:49.518Z,62.42
2022-10-13T18:24:17.825Z,62.39
2022-10-13T18:26:47.083Z,61.79
2022-10-13T18:29:15.225Z,61.47
2022-10-13T18:31:44.019Z,61.54
2022-10-13T18:34:16.931Z,61.28
2022-10-13T18:36:47.268Z,62.07
2022-10-13T18:39:17.096Z,61.58
2022-10-13T18:41:48.593Z,61.53
2022-10-13T18:44:17.607Z,61.53
2022-10-13T18:46:46.236Z,61.65
2022-10-13T18:49:18.261Z,61.40
2022-10-13T18:51:46.873Z,61.82
2022-10-13T18:54:15.188Z,61.89
2022-10-13T18:56:43.327Z,61.83
2022-10-13T18:59:12.541Z,61.95
2022-10-13T19:01:41.706Z,62.76
2022-10-13T19:04:12.700Z,61.84
2022-10-13T19:06:42.540Z,61.75
2022-10-13T19:09:13.630Z,63.56
2022-10-13T19:11:42.202Z,62.57
2022-10-13T19:14:13.038Z,61.79
2022-10-13T19:16:43.633Z,61.65
2022-10-13T19:19:12.239Z,61.61
2022-10-13T19:21:42.495Z,62.73
2022-10-13T19:24:12.148Z,62.57
2022-10-13T19:26:40.536Z,61.83
2022-10-13T19:29:10.793Z,61.98
2022-10-13T19:31:41.863Z,62.42
2022-10-13T19:34:10.654Z,63.01
2022-10-13T19:36:41.439Z,62.69
2022-10-13T19:39:15.923Z,61.71
2022-10-13T19:41:45.094Z,61.41
2022-10-13T19:44:15.530Z,61.75
2022-10-13T19:46:45.835Z,61.65
2022-10-13T19:49:17.508Z,62.32
2022-10-13T19:51:46.724Z,62.33
2022-10-13T19:54:20.852Z,61.95
2022-10-13T19:56:50.428Z,61.96
2022-10-13T19:59:19.591Z,61.72
2022-10-13T20:01:48.618Z,62.00
2022-10-13T20:04:20.712Z,62.89
2022-10-13T20:06:49.143Z,62.51
2022-10-13T20:09:20.790Z,63.48
2022-10-13T20:11:51.060Z,62.74
2022-10-13T20:14:21.258Z,62.27
2022-10-13T20:16:49.932Z,63.07
2022-10-13T20:19:19.556Z,62.99
2022-10-13T20:21:51.700Z,62.18
2022-10-13T20:24:23.199Z,62.17
2022-10-13T20:26:51.462Z,62.76
2022-10-13T20:29:23.595Z,62.76
2022-10-13T20:31:52.212Z,63.07
2022-10-13T20:34:20.802Z,63.06
2022-10-13T20:36:51.182Z,63.05
2022-10-13T20:39:21.674Z,63.87
2022-10-13T20:41:49.748Z,64.04
2022-10-13T20:44:18.475Z,64.27
2022-10-13T20:46:46.739Z,63.39
2022-10-13T20:49:40.534Z,64.64
2022-10-13T20:52:08.861Z,63.78
2022-10-13T20:54:38.280Z,64.21
2022-10-13T20:57:06.500Z,64.63
2022-10-13T20:59:34.555Z,64.68
2022-10-13T21:02:02.708Z,64.48
2022-10-13T21:04:30.988Z,65.19
2022-10-13T21:06:59.036Z,64.94
2022-10-13T21:09:27.031Z,65.20
2022-10-13T21:11:56.407Z,65.13
2022-10-13T21:14:51.547Z,65.64
2022-10-13T21:17:19.965Z,64.81
2022-10-13T21:19:48.239Z,65.15
2022-10-13T21:22:16.435Z,66.78
2022-10-13T21:24:44.777Z,65.73
2022-10-13T21:27:14.248Z,65.66
2022-10-13T21:29:42.651Z,64.95
2022-10-13T21:32:11.495Z,66.35
2022-10-13T21:35:54.996Z,65.06
2022-10-13T21:38:23.534Z,65.15
2022-10-13T21:40:54.003Z,65.53
2022-10-13T21:43:23.749Z,65.94
2022-10-13T21:48:49.267Z,65.72
2022-10-13T21:51:19.540Z,65.72
2022-10-13T21:53:51.099Z,65.88
2022-10-13T21:56:20.250Z,65.39
2022-10-13T21:58:50.284Z,65.37
2022-10-13T22:01:19.816Z,65.75
2022-10-13T22:03:49.013Z,65.74
2022-10-13T22:06:21.328Z,66.20
2022-10-13T22:08:51.656Z,67.11
2022-10-13T22:11:24.411Z,67.42
2022-10-13T22:13:54.166Z,67.38
2022-10-13T22:16:24.408Z,66.67
2022-10-13T22:18:54.783Z,66.59
2022-10-13T22:21:28.584Z,66.76
2022-10-13T22:23:59.206Z,66.71
2022-10-13T22:26:28.940Z,66.76
2022-10-13T22:28:59.332Z,66.28
2022-10-13T22:31:28.263Z,66.50
2022-10-13T22:33:56.690Z,65.97
2022-10-13T22:36:27.089Z,66.13
2022-10-13T22:38:57.416Z,65.82
2022-10-13T22:41:25.817Z,66.76
2022-10-13T22:43:56.206Z,66.68
2022-10-13T22:46:28.723Z,67.08
2022-10-13T22:48:58.053Z,66.50
2022-10-13T22:51:28.273Z,66.21
2022-10-13T22:53:57.441Z,66.00
2022-10-13T22:56:27.656Z,65.83
2022-10-13T22:58:57.965Z,66.01
2022-10-13T23:01:28.442Z,66.43
2022-10-13T23:03:58.430Z,66.77
2022-10-13T23:06:28.810Z,65.97
2022-10-13T23:08:57.798Z,66.49
2022-10-13T23:11:26.049Z,66.15
2022-10-13T23:13:54.802Z,65.91
2022-10-13T23:16:24.853Z,66.19
2022-10-13T23:18:55.531Z,65.69
2022-10-13T23:21:26.747Z,66.21
2022-10-13T23:23:56.269Z,66.34
2022-10-13T23:26:25.096Z,66.05
2022-10-13T23:28:55.870Z,66.01
2022-10-13T23:31:25.343Z,66.68
2022-10-13T23:33:56.764Z,66.85
2022-10-13T23:36:26.828Z,66.95
2022-10-13T23:38:57.147Z,67.32
2022-10-13T23:41:25.630Z,67.01
2022-10-13T23:43:53.972Z,67.24
2022-10-13T23:46:22.854Z,66.91
2022-10-13T23:48:51.080Z,66.58
2022-10-13T23:51:23.294Z,66.07
2022-10-13T23:53:52.530Z,66.36
2022-10-13T23:56:21.119Z,66.30
2022-10-13T23:58:49.649Z,66.04
